createdAt,value
2019-01-29T00:01:30.049Z,95462.84
2019-01-29T00:04:04.104Z,95469.32
2019-01-29T00:06:33.301Z,95486.08
2019-01-29T00:09:02.590Z,95461.09
2019-01-29T00:11:32.837Z,95459.89
2019-01-29T00:14:01.940Z,95465.74
2019-01-29T00:16:33.724Z,95463.95
2019-01-29T00:19:03.035Z,95470.04
2019-01-29T00:21:32.586Z,95467.66
2019-01-29T00:24:04.052Z,95468.40
2019-01-29T00:26:38.857Z,95469.02
2019-01-29T00:29:08.900Z,95466.92
2019-01-29T00:31:42.110Z,95470.54
2019-01-29T00:34:11.272Z,95469.75
2019-01-29T00:36:40.956Z,95470.37
2019-01-29T00:39:11.566Z,95467.80
2019-01-29T00:41:41.415Z,94008.13
2019-01-29T00:44:10.508Z,95485.22
2019-01-29T00:46:39.810Z,95489.03
2019-01-29T00:49:09.111Z,95491.63
2019-01-29T00:51:44.446Z,95489.04
2019-01-29T00:54:13.535Z,95489.89
2019-01-29T00:56:45.045Z,95495.98
2019-01-29T00:59:22.599Z,95497.06
2019-01-29T01:01:51.737Z,95501.98
2019-01-29T01:04:21.672Z,95506.10
2019-01-29T01:06:50.819Z,95497.14
2019-01-29T01:09:20.085Z,95507.38
2019-01-29T01:11:49.228Z,95510.49
2019-01-29T01:14:21.554Z,95506.67
2019-01-29T01:16:51.151Z,95509.34
2019-01-29T01:19:20.334Z,95511.95
2019-01-29T01:21:51.715Z,95509.33
2019-01-29T01:24:24.514Z,95514.30
2019-01-29T01:27:03.219Z,95517.78
2019-01-29T01:29:32.330Z,95521.63
2019-01-29T01:32:04.013Z,95529.70
2019-01-29T01:34:34.374Z,95533.88
2019-01-29T01:37:09.791Z,95533.30
2019-01-29T01:39:38.850Z,95536.05
2019-01-29T01:42:07.953Z,95544.70
2019-01-29T01:44:38.493Z,95538.42
2019-01-29T01:47:13.549Z,95541.52
2019-01-29T01:49:45.689Z,95543.97
2019-01-29T01:52:20.488Z,95542.48
2019-01-29T01:54:51.433Z,95545.41
2019-01-29T02:00:14.655Z,95547.17
2019-01-29T02:02:46.712Z,95560.25
2019-01-29T02:05:16.197Z,95554.25
2019-01-29T02:07:45.370Z,95554.42
2019-01-29T02:10:22.416Z,95560.75
2019-01-29T02:12:53.140Z,95556.21
2019-01-29T02:15:22.415Z,95567.52
2019-01-29T02:17:51.573Z,95565.47
2019-01-29T02:20:21.017Z,95562.25
2019-01-29T02:22:53.128Z,95570.70
2019-01-29T02:25:32.976Z,95565.57
2019-01-29T02:28:02.129Z,95570.45
2019-01-29T02:30:31.205Z,95573.41
2019-01-29T02:33:03.795Z,95562.45
2019-01-29T02:35:36.068Z,95564.61
2019-01-29T02:38:05.149Z,95566.54
2019-01-29T02:40:39.188Z,95575.33
2019-01-29T02:43:08.303Z,95573.89
2019-01-29T02:45:37.401Z,95578.62
2019-01-29T02:48:09.317Z,95564.52
2019-01-29T02:50:38.440Z,95564.70
2019-01-29T02:53:17.814Z,95567.04
2019-01-29T02:55:38.636Z,95567.50
2019-01-29T02:58:08.905Z,95568.44
2019-01-29T03:00:40.513Z,95559.37
2019-01-29T03:03:12.558Z,95576.06
2019-01-29T03:05:49.663Z,95558.92
2019-01-29T03:08:21.523Z,95568.64
2019-01-29T03:10:52.713Z,95567.63
2019-01-29T03:13:44.226Z,95563.88
2019-01-29T03:16:13.564Z,95571.00
2019-01-29T03:18:45.466Z,95569.61
2019-01-29T03:21:20.962Z,95573.20
2019-01-29T03:24:09.228Z,95580.58
2019-01-29T03:26:38.444Z,95578.70
2019-01-29T03:29:11.650Z,95571.83
2019-01-29T03:31:41.249Z,95579.43
2019-01-29T03:34:13.486Z,95582.98
2019-01-29T03:36:45.334Z,95580.60
2019-01-29T03:39:17.443Z,95581.83
2019-01-29T03:41:52.604Z,95590.67
2019-01-29T03:44:24.013Z,95589.00
2019-01-29T03:46:55.854Z,95588.07
2019-01-29T03:49:26.550Z,95593.28
2019-01-29T03:51:55.775Z,95597.64
2019-01-29T03:54:31.152Z,95594.46
2019-01-29T03:57:00.415Z,95598.58
2019-01-29T03:59:31.110Z,95599.80
2019-01-29T04:02:00.302Z,95596.28
2019-01-29T04:04:29.402Z,95592.27
2019-01-29T04:06:59.966Z,95603.67
2019-01-29T04:09:30.539Z,95594.88
2019-01-29T04:12:04.125Z,95600.02
2019-01-29T04:14:36.226Z,95597.89
2019-01-29T04:17:08.620Z,95597.12
2019-01-29T04:19:37.763Z,95599.68
2019-01-29T04:22:07.170Z,95603.70
2019-01-29T04:24:43.781Z,95605.58
2019-01-29T04:27:12.999Z,95614.36
2019-01-29T04:29:42.134Z,95619.00
2019-01-29T04:32:12.520Z,95620.63
2019-01-29T04:34:43.923Z,95617.55
2019-01-29T04:37:13.191Z,95623.14
2019-01-29T04:39:42.398Z,95619.47
2019-01-29T04:42:13.491Z,95619.58
2019-01-29T04:44:42.653Z,95627.50
2019-01-29T04:47:15.372Z,95626.91
2019-01-29T04:49:50.957Z,95546.05
2019-01-29T04:52:22.889Z,95622.92
2019-01-29T04:54:53.346Z,95625.23
2019-01-29T04:57:23.033Z,95621.08
2019-01-29T04:59:54.355Z,95618.96
2019-01-29T05:02:26.668Z,95620.61
2019-01-29T05:04:57.152Z,95619.53
2019-01-29T05:07:26.712Z,95622.70
2019-01-29T05:09:57.727Z,95622.25
2019-01-29T05:12:29.423Z,95629.20
2019-01-29T05:15:03.638Z,95628.74
2019-01-29T05:17:55.913Z,95635.41
2019-01-29T05:20:28.281Z,95640.16
2019-01-29T05:22:57.718Z,95641.23
2019-01-29T05:25:27.262Z,95641.83
2019-01-29T05:27:59.320Z,95638.27
2019-01-29T05:30:28.583Z,94965.32
2019-01-29T05:32:57.721Z,95644.33
2019-01-29T05:35:26.809Z,95648.30
2019-01-29T05:37:59.194Z,95651.06
2019-01-29T05:40:30.663Z,95652.84
2019-01-29T05:43:03.416Z,95654.19
2019-01-29T05:45:33.634Z,95657.14
2019-01-29T05:48:08.954Z,95658.91
2019-01-29T05:50:39.319Z,95662.38
2019-01-29T05:53:09.899Z,95669.01
2019-01-29T05:55:40.146Z,95672.42
2019-01-29T05:58:09.231Z,94250.17
2019-01-29T06:00:40.707Z,95673.69
2019-01-29T06:03:12.516Z,95672.71
2019-01-29T06:05:42.327Z,95676.92
2019-01-29T06:08:11.724Z,95676.73
2019-01-29T06:10:41.941Z,95673.55
2019-01-29T06:13:16.613Z,95677.91
2019-01-29T06:15:48.401Z,95673.08
2019-01-29T06:18:22.342Z,95670.30
2019-01-29T06:20:54.647Z,95672.50
2019-01-29T06:23:26.823Z,95667.91
2019-01-29T06:25:57.279Z,95669.27
2019-01-29T06:28:30.072Z,95668.14
2019-01-29T06:30:59.385Z,95667.91
2019-01-29T06:33:34.174Z,95671.03
2019-01-29T06:36:05.582Z,95673.47
2019-01-29T06:38:34.717Z,95666.20
2019-01-29T06:41:03.968Z,95674.38
2019-01-29T06:43:33.339Z,95671.70
2019-01-29T06:46:02.477Z,95672.70
2019-01-29T06:48:31.596Z,95668.47
2019-01-29T06:51:02.679Z,95672.45
2019-01-29T06:53:36.507Z,95673.02
2019-01-29T06:56:06.227Z,95672.34
2019-01-29T06:58:35.480Z,95678.00
2019-01-29T07:01:14.060Z,95679.77
2019-01-29T07:03:50.739Z,95682.14
2019-01-29T07:06:19.867Z,95700.52
2019-01-29T07:08:49.022Z,95688.58
2019-01-29T07:11:18.151Z,95692.06
2019-01-29T07:13:47.326Z,95693.36
2019-01-29T07:16:34.937Z,95693.88
2019-01-29T07:19:24.243Z,95694.64
2019-01-29T07:21:53.342Z,95700.02
2019-01-29T07:24:28.646Z,95702.19
2019-01-29T07:26:55.484Z,95703.34
2019-01-29T07:29:24.927Z,95708.80
2019-01-29T07:31:56.790Z,95701.92
2019-01-29T07:34:26.139Z,95704.36
2019-01-29T07:36:57.010Z,95695.46
2019-01-29T07:39:29.144Z,95695.62
2019-01-29T07:41:59.948Z,95702.91
2019-01-29T07:44:29.257Z,95704.56
2019-01-29T07:47:00.362Z,95704.53
2019-01-29T07:49:36.554Z,95703.68
2019-01-29T07:52:06.048Z,95706.28
2019-01-29T07:54:35.223Z,95709.63
2019-01-29T07:57:04.388Z,95705.70
2019-01-29T07:59:33.498Z,95705.08
2019-01-29T08:02:07.634Z,95706.98
2019-01-29T08:04:40.500Z,95710.28
2019-01-29T08:07:10.906Z,95706.66
2019-01-29T08:09:44.351Z,95707.03
2019-01-29T08:12:22.599Z,95707.87
2019-01-29T08:14:55.337Z,95704.75
2019-01-29T08:17:24.691Z,95710.80
2019-01-29T08:19:58.871Z,95709.03
2019-01-29T08:22:28.137Z,95399.77
2019-01-29T08:25:01.825Z,95701.45
2019-01-29T08:27:28.525Z,95699.97
2019-01-29T08:30:01.159Z,95691.70
2019-01-29T08:32:31.754Z,95694.48
2019-01-29T08:35:26.849Z,95696.47
2019-01-29T08:37:57.554Z,95707.20
2019-01-29T08:40:27.074Z,95730.94
2019-01-29T08:42:58.938Z,95695.80
2019-01-29T08:45:31.470Z,95703.22
2019-01-29T08:48:01.524Z,95703.45
2019-01-29T08:50:34.526Z,95700.16
2019-01-29T08:53:10.883Z,95701.62
2019-01-29T08:55:45.223Z,95696.12
2019-01-29T08:58:16.830Z,95698.28
2019-01-29T09:00:46.365Z,95692.89
2019-01-29T09:03:19.111Z,95691.05
2019-01-29T09:05:52.493Z,95686.59
2019-01-29T09:08:27.067Z,95682.40
2019-01-29T09:10:58.038Z,95684.81
2019-01-29T09:13:27.211Z,95744.61
2019-01-29T09:15:57.713Z,95687.41
2019-01-29T09:18:34.352Z,95689.55
2019-01-29T09:21:03.875Z,95686.85
2019-01-29T09:23:35.142Z,95673.87
2019-01-29T09:26:04.534Z,95674.23
2019-01-29T09:28:33.967Z,95672.59
2019-01-29T09:31:08.743Z,95671.27
2019-01-29T09:33:37.854Z,95670.29
2019-01-29T09:36:07.261Z,95670.73
2019-01-29T09:38:36.635Z,95672.96
2019-01-29T09:41:08.884Z,95668.12
2019-01-29T09:43:39.191Z,95655.66
2019-01-29T09:46:08.339Z,95665.50
2019-01-29T09:48:37.434Z,95656.41
2019-01-29T09:51:07.039Z,95654.45
2019-01-29T09:53:42.832Z,95653.03
2019-01-29T09:56:10.459Z,95652.03
2019-01-29T09:58:39.899Z,95657.25
2019-01-29T10:01:12.852Z,95652.50
2019-01-29T10:03:42.413Z,95653.50
2019-01-29T10:06:11.540Z,95654.62
2019-01-29T10:08:40.665Z,95654.86
2019-01-29T10:11:09.750Z,95650.42
2019-01-29T10:13:39.199Z,95646.41
2019-01-29T10:16:12.622Z,95645.55
2019-01-29T10:18:42.629Z,95644.62
2019-01-29T10:21:22.940Z,95646.63
2019-01-29T10:23:52.215Z,95642.52
2019-01-29T10:26:22.776Z,95644.89
2019-01-29T10:28:57.006Z,95639.50
2019-01-29T10:31:32.435Z,95647.66
2019-01-29T10:34:01.509Z,95635.77
2019-01-29T10:36:30.628Z,95625.76
2019-01-29T10:39:00.875Z,95624.34
2019-01-29T10:41:33.325Z,95618.62
2019-01-29T10:44:02.544Z,95618.50
2019-01-29T10:46:31.869Z,95609.17
2019-01-29T10:49:02.558Z,95608.74
2019-01-29T10:51:36.560Z,95608.09
2019-01-29T10:54:09.991Z,95600.58
2019-01-29T10:56:39.311Z,95596.48
2019-01-29T10:59:11.154Z,95592.52
2019-01-29T11:01:40.507Z,95591.80
2019-01-29T11:04:10.078Z,95586.27
2019-01-29T11:06:46.657Z,95581.86
2019-01-29T11:09:25.356Z,95582.50
2019-01-29T11:11:52.966Z,95575.16
2019-01-29T11:14:22.347Z,95575.72
2019-01-29T11:16:51.461Z,95565.45
2019-01-29T11:19:20.665Z,95557.52
2019-01-29T11:21:53.649Z,95556.13
2019-01-29T11:24:23.096Z,95554.77
2019-01-29T11:27:00.050Z,95553.02
2019-01-29T11:29:30.035Z,95540.24
2019-01-29T11:32:02.255Z,95543.34
2019-01-29T11:34:31.331Z,95540.34
2019-01-29T11:37:00.432Z,95530.71
2019-01-29T11:39:38.934Z,95522.38
2019-01-29T11:42:09.775Z,95522.04
2019-01-29T11:44:50.729Z,95520.11
2019-01-29T11:47:29.234Z,95511.53
2019-01-29T11:49:58.524Z,95510.73
2019-01-29T11:52:28.827Z,95507.42
2019-01-29T11:55:02.632Z,95506.72
2019-01-29T11:57:36.635Z,95512.37
2019-01-29T12:00:11.466Z,95507.52
2019-01-29T12:02:40.600Z,95495.81
2019-01-29T12:05:09.866Z,95495.15
2019-01-29T12:07:40.660Z,95491.36
2019-01-29T12:10:10.122Z,95488.53
2019-01-29T12:12:46.163Z,95486.05
2019-01-29T12:15:16.241Z,95478.83
2019-01-29T12:17:49.294Z,95475.17
2019-01-29T12:20:18.694Z,95466.61
2019-01-29T12:22:53.123Z,95462.34
2019-01-29T12:25:24.111Z,95456.32
2019-01-29T12:27:53.238Z,95458.14
2019-01-29T12:30:22.798Z,95453.01
2019-01-29T12:32:54.356Z,95446.48
2019-01-29T12:35:23.952Z,95433.58
2019-01-29T12:37:56.463Z,95430.38
2019-01-29T12:40:27.322Z,95428.79
2019-01-29T12:43:03.433Z,95422.46
2019-01-29T12:45:54.089Z,95418.67
2019-01-29T12:48:23.223Z,95418.72
2019-01-29T12:51:00.409Z,95415.97
2019-01-29T12:53:35.831Z,95412.59
2019-01-29T12:56:05.473Z,95403.42
2019-01-29T12:58:36.102Z,95403.15
2019-01-29T13:01:12.689Z,95403.63
2019-01-29T13:03:42.075Z,95399.47
2019-01-29T13:06:14.931Z,95391.76
2019-01-29T13:08:47.410Z,95397.06
2019-01-29T13:11:18.273Z,95391.58
2019-01-29T13:13:51.081Z,95382.00
2019-01-29T13:16:27.765Z,95385.42
2019-01-29T13:19:00.748Z,95385.00
2019-01-29T13:21:30.165Z,95379.94
2019-01-29T13:23:59.768Z,95373.39
2019-01-29T13:26:30.365Z,95361.78
2019-01-29T13:28:59.588Z,95367.56
2019-01-29T13:31:31.755Z,95357.25
2019-01-29T13:34:10.278Z,95356.63
2019-01-29T13:37:07.432Z,95353.69
2019-01-29T13:39:18.992Z,95077.13
2019-01-29T13:41:49.051Z,95350.20
2019-01-29T13:44:21.322Z,95340.64
2019-01-29T13:46:50.554Z,95334.14
2019-01-29T13:49:19.727Z,95337.64
2019-01-29T13:51:49.101Z,95334.88
2019-01-29T13:54:18.303Z,95330.67
2019-01-29T13:56:51.439Z,95328.17
2019-01-29T13:59:20.781Z,95323.14
2019-01-29T14:01:50.117Z,95316.90
2019-01-29T14:04:20.250Z,95320.48
2019-01-29T14:06:52.249Z,95324.52
2019-01-29T14:09:23.923Z,95326.63
2019-01-29T14:11:53.095Z,95364.51
2019-01-29T14:14:22.229Z,95319.74
2019-01-29T14:16:53.231Z,95318.99
2019-01-29T14:19:23.570Z,95307.38
2019-01-29T14:21:54.504Z,95307.16
2019-01-29T14:24:26.228Z,95304.64
2019-01-29T14:26:55.732Z,95302.64
2019-01-29T14:29:27.412Z,95299.11
2019-01-29T14:31:59.119Z,95285.63
2019-01-29T14:34:36.487Z,95285.55
2019-01-29T14:37:09.250Z,95281.86
2019-01-29T14:40:26.688Z,95279.50
2019-01-29T14:42:55.888Z,95281.84
2019-01-29T14:45:28.065Z,95283.40
2019-01-29T14:47:58.281Z,95277.99
2019-01-29T14:50:30.123Z,95268.92
2019-01-29T14:52:59.185Z,95269.75
2019-01-29T14:55:40.851Z,95267.53
2019-01-29T14:58:13.101Z,95267.31
2019-01-29T15:00:49.562Z,95267.67
2019-01-29T15:03:24.183Z,95261.30
2019-01-29T15:06:00.998Z,95260.03
2019-01-29T15:08:32.856Z,95256.70
2019-01-29T15:11:03.993Z,95247.55
2019-01-29T15:13:35.523Z,95249.14
2019-01-29T15:16:22.824Z,95234.69
2019-01-29T15:18:56.661Z,95230.33
2019-01-29T15:21:26.628Z,95232.52
2019-01-29T15:23:56.322Z,95223.98
2019-01-29T15:26:29.955Z,95245.42
2019-01-29T15:29:00.154Z,95218.75
2019-01-29T15:31:31.266Z,95221.64
2019-01-29T15:34:01.485Z,95213.98
2019-01-29T15:36:33.479Z,95210.21
2019-01-29T15:39:02.883Z,95204.33
2019-01-29T15:41:32.690Z,95205.55
2019-01-29T15:44:04.331Z,95196.69
2019-01-29T15:46:37.834Z,95201.92
2019-01-29T15:49:10.582Z,95186.54
2019-01-29T15:51:42.877Z,95181.16
2019-01-29T15:54:14.472Z,95182.52
2019-01-29T15:56:43.828Z,95180.94
2019-01-29T15:59:14.366Z,95174.91
2019-01-29T16:01:46.510Z,95169.94
2019-01-29T16:04:15.794Z,95167.95
2019-01-29T16:06:45.284Z,95164.89
2019-01-29T16:09:17.524Z,95158.29
2019-01-29T16:11:46.647Z,95155.61
2019-01-29T16:14:19.631Z,95151.42
2019-01-29T16:16:48.767Z,95140.73
2019-01-29T16:19:18.064Z,95139.45
2019-01-29T16:21:47.177Z,95134.49
2019-01-29T16:24:16.319Z,95133.78
2019-01-29T16:26:49.345Z,95132.46
2019-01-29T16:29:18.581Z,95124.59
2019-01-29T16:31:47.678Z,95123.61
2019-01-29T16:34:16.768Z,95120.72
2019-01-29T16:36:47.095Z,95116.26
2019-01-29T16:39:24.397Z,95113.34
2019-01-29T16:42:10.800Z,95107.83
2019-01-29T16:44:40.271Z,95104.56
2019-01-29T16:47:12.275Z,95097.23
2019-01-29T16:49:42.880Z,95095.75
2019-01-29T16:52:12.165Z,95085.58
2019-01-29T16:54:41.245Z,95085.59
2019-01-29T16:57:13.828Z,95085.63
2019-01-29T16:59:45.664Z,95083.00
2019-01-29T17:02:23.470Z,95081.18
2019-01-29T17:04:52.554Z,95069.10
2019-01-29T17:07:21.619Z,94984.69
2019-01-29T17:09:53.260Z,95071.20
2019-01-29T17:12:25.442Z,95062.83
2019-01-29T17:14:54.527Z,95057.58
2019-01-29T17:17:23.728Z,95052.59
2019-01-29T17:19:53.078Z,95049.97
2019-01-29T17:22:22.211Z,95046.28
2019-01-29T17:24:57.565Z,95037.63
2019-01-29T17:27:26.840Z,95035.00
2019-01-29T17:29:55.979Z,95028.19
2019-01-29T17:32:30.449Z,95020.05
2019-01-29T17:34:59.133Z,95022.67
2019-01-29T17:37:29.967Z,95017.45
2019-01-29T17:39:59.057Z,95013.77
2019-01-29T17:42:35.278Z,95009.31
2019-01-29T17:45:05.666Z,95004.61
2019-01-29T17:47:35.885Z,95001.19
2019-01-29T17:50:06.759Z,94995.94
2019-01-29T17:52:36.986Z,94994.07
2019-01-29T17:55:09.647Z,94990.12
2019-01-29T17:57:50.361Z,94985.63
2019-01-29T18:00:14.604Z,94980.87
2019-01-29T18:02:44.839Z,94980.32
2019-01-29T18:05:14.445Z,94978.44
2019-01-29T18:07:46.613Z,94973.98
2019-01-29T18:10:16.346Z,94971.88
2019-01-29T18:12:50.228Z,94963.45
2019-01-29T18:15:24.300Z,94964.70
2019-01-29T18:17:53.617Z,94961.58
2019-01-29T18:20:23.428Z,94962.06
2019-01-29T18:22:56.312Z,94952.08
2019-01-29T18:25:28.295Z,94949.67
2019-01-29T18:28:01.218Z,94946.78
2019-01-29T18:30:30.442Z,94943.37
2019-01-29T18:33:00.499Z,94935.33
2019-01-29T18:35:29.622Z,94936.30
2019-01-29T18:37:58.799Z,94932.39
2019-01-29T18:40:41.037Z,94929.28
2019-01-29T18:43:01.941Z,94924.27
2019-01-29T18:45:31.119Z,94917.02
2019-01-29T18:48:01.081Z,94922.31
2019-01-29T18:50:31.853Z,94915.91
2019-01-29T18:53:01.007Z,94914.37
2019-01-29T18:55:30.268Z,94915.92
2019-01-29T18:58:11.204Z,94911.95
2019-01-29T19:00:32.240Z,94900.09
2019-01-29T19:03:04.974Z,94892.72
2019-01-29T19:05:35.408Z,94889.55
2019-01-29T19:08:06.256Z,94889.01
2019-01-29T19:10:35.515Z,94877.75
2019-01-29T19:13:06.725Z,94888.73
2019-01-29T19:15:35.914Z,94882.51
2019-01-29T19:18:06.343Z,94869.38
2019-01-29T19:20:35.751Z,94870.83
2019-01-29T19:23:06.274Z,94861.34
2019-01-29T19:25:37.731Z,94860.23
2019-01-29T19:28:06.875Z,94854.27
2019-01-29T19:30:35.993Z,94855.30
2019-01-29T19:33:05.444Z,94847.70
2019-01-29T19:35:36.086Z,94851.85
2019-01-29T19:38:05.409Z,94858.51
2019-01-29T19:40:35.078Z,94852.18
2019-01-29T19:43:04.255Z,94848.84
2019-01-29T19:45:34.359Z,94844.31
2019-01-29T19:48:07.370Z,94846.84
2019-01-29T19:50:36.501Z,94842.07
2019-01-29T19:53:14.359Z,94838.25
2019-01-29T19:55:43.582Z,94836.20
2019-01-29T19:58:12.985Z,94833.79
2019-01-29T20:00:45.602Z,94829.61
2019-01-29T20:03:16.822Z,94827.66
2019-01-29T20:05:47.239Z,94825.89
2019-01-29T20:08:18.963Z,94826.18
2019-01-29T20:10:48.071Z,94822.31
2019-01-29T20:13:17.221Z,94813.17
2019-01-29T20:15:46.426Z,94810.31
2019-01-29T20:18:15.896Z,94809.16
2019-01-29T20:20:47.873Z,94797.80
2019-01-29T20:23:19.635Z,94792.08
2019-01-29T20:25:50.667Z,94799.34
2019-01-29T20:28:20.325Z,94794.17
2019-01-29T20:30:49.976Z,94794.00
2019-01-29T20:33:22.042Z,94793.45
2019-01-29T20:35:52.906Z,94791.41
2019-01-29T20:38:35.211Z,94792.05
2019-01-29T20:41:04.706Z,94792.12
2019-01-29T20:43:34.033Z,94778.47
2019-01-29T20:46:03.153Z,94776.86
2019-01-29T20:48:33.386Z,94778.16
2019-01-29T20:51:05.137Z,94772.09
2019-01-29T20:53:34.813Z,94764.78
2019-01-29T20:56:04.220Z,94762.98
2019-01-29T20:58:33.305Z,94763.78
2019-01-29T21:01:02.522Z,94750.74
2019-01-29T21:03:32.628Z,94753.60
2019-01-29T21:06:02.850Z,94746.56
2019-01-29T21:08:32.271Z,94744.75
2019-01-29T21:11:02.708Z,94737.67
2019-01-29T21:13:33.843Z,94737.41
2019-01-29T21:16:03.705Z,94724.84
2019-01-29T21:18:33.939Z,94720.42
2019-01-29T21:21:04.500Z,94714.93
2019-01-29T21:23:33.803Z,94709.15
2019-01-29T21:26:04.503Z,94704.98
2019-01-29T21:28:33.700Z,94701.06
2019-01-29T21:31:05.696Z,94692.15
2019-01-29T21:33:38.045Z,94692.37
2019-01-29T21:36:07.477Z,94688.45
2019-01-29T21:38:37.661Z,94685.80
2019-01-29T21:41:09.769Z,94684.76
2019-01-29T21:43:46.089Z,94674.52
2019-01-29T21:46:18.424Z,94682.34
2019-01-29T21:48:47.591Z,94672.69
2019-01-29T21:51:17.278Z,94662.97
2019-01-29T21:53:51.492Z,94660.08
2019-01-29T21:56:22.051Z,94655.59
2019-01-29T21:58:53.942Z,94651.37
2019-01-29T22:01:27.326Z,94646.20
2019-01-29T22:03:56.560Z,94645.20
2019-01-29T22:06:28.775Z,94644.44
2019-01-29T22:08:57.934Z,94640.83
2019-01-29T22:11:30.517Z,93294.98
2019-01-29T22:14:00.973Z,94630.16
2019-01-29T22:16:30.138Z,94631.19
2019-01-29T22:19:01.224Z,93130.34
2019-01-29T22:21:30.353Z,94622.30
2019-01-29T22:23:59.468Z,94618.41
2019-01-29T22:26:30.324Z,94612.42
2019-01-29T22:28:59.531Z,94608.74
2019-01-29T22:31:28.564Z,94598.55
2019-01-29T22:33:57.749Z,94592.55
2019-01-29T22:36:27.979Z,94590.95
2019-01-29T22:39:01.726Z,94588.31
2019-01-29T22:41:32.823Z,94580.25
2019-01-29T22:44:03.235Z,94570.04
2019-01-29T22:46:33.773Z,94569.00
2019-01-29T22:49:06.426Z,94567.19
2019-01-29T22:51:37.262Z,94559.87
2019-01-29T22:54:07.499Z,94559.36
2019-01-29T22:56:41.912Z,94560.38
2019-01-29T22:59:11.076Z,94556.43
2019-01-29T23:01:42.063Z,94555.91
2019-01-29T23:04:16.736Z,94548.86
2019-01-29T23:07:19.269Z,94543.16
2019-01-29T23:09:48.755Z,94537.12
2019-01-29T23:12:17.982Z,94533.38
2019-01-29T23:14:48.617Z,94536.70
2019-01-29T23:17:17.720Z,94528.14
2019-01-29T23:19:48.212Z,94519.56
2019-01-29T23:22:19.110Z,94515.67
2019-01-29T23:24:48.251Z,94507.03
2019-01-29T23:27:20.789Z,94504.97
2019-01-29T23:29:50.120Z,94495.30
2019-01-29T23:32:21.396Z,94491.66
2019-01-29T23:34:55.111Z,94486.73
2019-01-29T23:37:24.209Z,94480.98
2019-01-29T23:39:55.933Z,94480.19
2019-01-29T23:42:30.320Z,94475.50
2019-01-29T23:44:59.420Z,94473.16
2019-01-29T23:47:29.949Z,94180.92
2019-01-29T23:49:59.203Z,94469.66
2019-01-29T23:52:28.587Z,94466.37
2019-01-29T23:54:59.774Z,94454.78
2019-01-29T23:57:31.606Z,94460.81
